Aérodrome :
LOGIN :

S'inscrire | Disclaimer

   EN    FR    IT 

 










Légende :    VFR   VFR Marginal   IFR   IFR Intensif   IFR Très Intensif
Visi : 
Plafond : 
>= 8 km
>= 3000ft
5 à 8 km
1000 à 3000 ft
1500m à 5 km
500 à 1000 ft
800 à 1500m
200 à 500 ft
< 800m
< 200 ft
Symboles :   Orages  Brouillard  Fortes neiges  Fortes précipitations  Vent > 20 kt
SIGMETs :   Divers  Orages  Givrage  Turbulence  Onde Orograph.  Cendres Volcan.






- Altitude de l'aérodrome : 0 ft


ENSL - Sleipner A Platform

DERNIER METAR :
  • 010520Z AUTO 28027KT 9999NDV OVC055/// 07/03 Q1016 W04/S4

METARs EXPIRÉS :
  • 010450Z AUTO 28031KT 9999NDV BKN059/// 07/03 Q1016 W04/S4
  • 010420Z AUTO 29031KT 9999NDV FEW014/// BKN058/// 07/04 Q1017 W04/S4
  • 010350Z AUTO 29029KT 9999NDV FEW013/// BKN058/// 07/04 Q1017 W04/S4
  • 010320Z AUTO 29029KT 9999NDV SCT015/// BKN058/// BKN068/// 07/04 Q1018 W04/S4
  • 010250Z AUTO 29032KT 9999NDV BKN068/// 07/04 Q1018 W04/S4
  • 010220Z AUTO 29032KT 9999NDV FEW012/// BKN067/// 07/05 Q1018 W04/S4

Prévision TAF périmée.



MET'MAP, la Météo Aéronautique d'un coup d'oeil ! - Copyright ORBIFLY Décembre 2007 - Disclaimer

ORBIFLY MET'MAP TEAM :

Programmation & Développement : Alexandra Zaïnal
Sur une idée originale de : Baudouin d'Aumeries
Assistance à la programmation : Marc-Olivier Méhu
Soutien technique & logistique : Manuel Goepfert

Contact : metmap@orbifly.com




SOURCES & CREDITS :

   NOAA